Time;durP1;ratioP1;P1;durP2;ratioP2;P2;SDS_P1;SDS_P2;PMS_P1;PMS_P2;Temp;Humidity;BMP_temperature;BMP_pressure;BME280_temperature;BME280_humidity;BME280_pressure;Samples;Min_cycle;Max_cycle;Signal;HPM_P1;HPM_P2
2022/12/07 00:00:50;;;;;;;0.10;0.10;;;5.20;99.90;;;;;;5029604;28;20045;-63
2022/12/07 00:03:15;;;;;;;0.10;0.10;;;5.20;99.90;;;;;;5029247;28;20488;-63
2022/12/07 00:05:41;;;;;;;0.20;0.20;;;5.30;99.90;;;;;;5030828;28;20501;-63
2022/12/07 00:08:07;;;;;;;0.10;0.10;;;5.20;99.90;;;;;;5029480;28;20114;-63
2022/12/07 00:10:35;;;;;;;0.10;0.10;;;5.30;99.90;;;;;;5029484;28;20052;-63
2022/12/07 00:13:01;;;;;;;0.10;0.10;;;5.20;99.90;;;;;;5029336;28;20363;-63
2022/12/07 00:15:26;;;;;;;0.63;0.63;;;5.20;99.90;;;;;;5028982;28;20041;-64
2022/12/07 00:17:52;;;;;;;0.10;0.10;;;5.30;99.90;;;;;;5029665;28;20089;-64
2022/12/07 00:20:17;;;;;;;0.10;0.10;;;5.30;99.90;;;;;;5028680;28;20128;-63
2022/12/07 00:22:43;;;;;;;0.10;0.10;;;5.20;99.90;;;;;;5028664;28;20053;-63
2022/12/07 00:25:08;;;;;;;0.10;0.10;;;5.20;99.90;;;;;;5029072;28;20148;-64
2022/12/07 00:27:34;;;;;;;0.10;0.10;;;5.20;99.90;;;;;;5028223;28;20046;-63
2022/12/07 00:29:59;;;;;;;0.10;0.10;;;5.30;99.90;;;;;;5028920;28;20493;-63
2022/12/07 00:32:25;;;;;;;0.52;0.52;;;5.40;99.90;;;;;;5023393;28;20045;-63
2022/12/07 00:34:51;;;;;;;0.10;0.10;;;5.50;99.90;;;;;;5028643;28;20056;-64
2022/12/07 00:37:16;;;;;;;0.10;0.10;;;5.50;99.90;;;;;;5030199;28;20041;-64
2022/12/07 00:39:42;;;;;;;0.32;0.32;;;5.60;99.90;;;;;;5026522;28;20057;-63
2022/12/07 00:42:08;;;;;;;0.10;0.10;;;5.60;99.90;;;;;;5028700;28;20053;-64
2022/12/07 00:44:33;;;;;;;0.10;0.10;;;5.70;99.90;;;;;;5028407;28;20489;-63
2022/12/07 00:46:59;;;;;;;0.10;0.10;;;5.80;99.90;;;;;;5026665;28;20049;-63
2022/12/07 00:49:24;;;;;;;0.10;0.10;;;5.70;99.90;;;;;;5028680;28;20123;-63
2022/12/07 00:51:50;;;;;;;0.10;0.10;;;5.60;99.90;;;;;;5028914;28;20049;-63
2022/12/07 00:54:15;;;;;;;0.10;0.10;;;5.50;99.90;;;;;;5028748;28;20041;-63
2022/12/07 00:56:41;;;;;;;0.20;0.20;;;5.50;99.90;;;;;;5027321;28;20362;-63
2022/12/07 00:59:07;;;;;;;0.10;0.10;;;5.40;99.90;;;;;;5028434;28;20049;-63
2022/12/07 01:01:36;;;;;;;0.10;0.10;;;5.30;99.90;;;;;;5026657;28;20045;-64
2022/12/07 01:04:02;;;;;;;0.30;0.30;;;5.30;99.90;;;;;;5028544;28;20069;-63
2022/12/07 01:06:28;;;;;;;0.10;0.10;;;5.20;99.90;;;;;;5027282;28;20077;-63
2022/12/07 01:08:54;;;;;;;0.10;0.10;;;5.20;99.90;;;;;;5025555;28;20469;-63
2022/12/07 01:11:23;;;;;;;0.10;0.10;;;5.10;99.90;;;;;;5028814;28;20448;-63
2022/12/07 01:13:53;;;;;;;0.10;0.10;;;5.10;99.90;;;;;;5028196;28;20119;-63
2022/12/07 01:16:20;;;;;;;0.10;0.10;;;5.20;99.90;;;;;;5027260;28;20076;-63
2022/12/07 01:18:48;;;;;;;0.10;0.10;;;5.30;99.90;;;;;;5028387;28;20060;-64
2022/12/07 01:21:26;;;;;;;0.57;0.57;;;5.40;99.90;;;;;;5027371;28;20077;-64
2022/12/07 01:23:52;;;;;;;0.10;0.10;;;5.50;99.90;;;;;;5027198;28;20128;-63
2022/12/07 01:26:23;;;;;;;0.10;0.10;;;5.50;99.90;;;;;;5027289;28;20400;-64
2022/12/07 01:28:49;;;;;;;0.10;0.10;;;5.50;99.90;;;;;;5025522;28;20060;-63
2022/12/07 01:31:17;;;;;;;0.10;0.10;;;5.50;99.90;;;;;;5027122;28;20037;-63
2022/12/07 01:33:52;;;;;;;0.10;0.10;;;5.50;99.90;;;;;;5027572;28;20428;-64
2022/12/07 01:36:21;;;;;;;0.10;0.10;;;5.40;99.90;;;;;;5027376;28;20117;-64
2022/12/07 01:38:51;;;;;;;0.10;0.10;;;5.40;99.90;;;;;;5027294;28;20405;-64
2022/12/07 01:41:17;;;;;;;0.10;0.10;;;5.30;99.90;;;;;;5028924;28;20116;-64
2022/12/07 01:44:18;;;;;;;0.10;0.10;;;5.30;99.90;;;;;;5026447;28;20397;-64
2022/12/07 01:46:47;;;;;;;0.10;0.10;;;5.20;99.90;;;;;;5027224;28;20064;-63
2022/12/07 01:49:17;;;;;;;0.10;0.10;;;5.20;99.90;;;;;;5028078;28;20037;-64
2022/12/07 01:51:45;;;;;;;0.10;0.10;;;5.20;99.90;;;;;;5027365;28;20077;-64
2022/12/07 01:54:13;;;;;;;0.10;0.10;;;5.30;99.90;;;;;;5028784;28;20088;-64
2022/12/07 01:56:41;;;;;;;0.00;0.00;;;5.30;99.90;;;;;;5027030;28;20128;-64
2022/12/07 01:59:08;;;;;;;0.10;0.10;;;5.30;99.90;;;;;;5026954;28;20124;-64
2022/12/07 02:01:33;;;;;;;0.10;0.10;;;5.30;99.90;;;;;;5027230;28;20057;-64
2022/12/07 02:03:59;;;;;;;0.10;0.10;;;5.30;99.90;;;;;;5025166;28;20045;-63
2022/12/07 02:06:26;;;;;;;0.10;0.10;;;5.30;99.90;;;;;;5027830;28;20041;-64
2022/12/07 02:08:52;;;;;;;0.10;0.10;;;5.20;99.90;;;;;;5028460;28;20049;-64
2022/12/07 02:11:18;;;;;;;0.10;0.10;;;5.20;99.90;;;;;;5024453;28;20447;-64
2022/12/07 02:13:45;;;;;;;0.10;0.10;;;5.20;99.90;;;;;;5027806;28;20099;-64
2022/12/07 02:16:20;;;;;;;0.10;0.10;;;5.10;99.90;;;;;;5027130;28;20042;-64
2022/12/07 02:19:11;;;;;;;0.10;0.10;;;5.20;99.90;;;;;;5027378;28;20050;-64
2022/12/07 02:22:07;;;;;;;0.20;0.20;;;5.10;99.90;;;;;;5043281;28;20064;-64
2022/12/07 02:24:33;;;;;;;1.00;1.00;;;5.10;99.90;;;;;;5026810;28;20041;-63
2022/12/07 02:27:19;;;;;;;0.10;0.10;;;5.10;99.90;;;;;;5026486;28;20045;-63
2022/12/07 02:30:01;;;;;;;0.10;0.10;;;5.20;99.90;;;;;;5027471;28;20060;-64
2022/12/07 02:32:35;;;;;;;0.10;0.10;;;5.30;99.90;;;;;;5027716;28;20382;-64
2022/12/07 02:35:09;;;;;;;0.10;0.10;;;5.30;99.90;;;;;;5025351;28;20038;-64
2022/12/07 02:37:57;;;;;;;0.10;0.10;;;5.40;99.90;;;;;;5027520;28;20053;-64
2022/12/07 02:40:40;;;;;;;0.10;0.10;;;5.40;99.90;;;;;;5027285;28;20037;-64
2022/12/07 02:43:18;;;;;;;0.10;0.10;;;5.40;99.90;;;;;;5027899;28;20053;-63
2022/12/07 02:45:45;;;;;;;0.10;0.10;;;5.50;99.90;;;;;;5028818;28;20076;-63
2022/12/07 02:48:14;;;;;;;0.05;0.05;;;5.50;99.90;;;;;;5030231;28;20045;-64
2022/12/07 02:50:47;;;;;;;0.10;0.10;;;5.50;99.90;;;;;;5026924;28;20072;-64
2022/12/07 02:53:37;;;;;;;0.10;0.10;;;5.60;99.90;;;;;;5029964;28;20433;-64
2022/12/07 02:56:24;;;;;;;0.10;0.10;;;5.60;99.90;;;;;;5030477;28;20591;-64
2022/12/07 02:59:14;;;;;;;0.10;0.10;;;5.50;99.90;;;;;;5028990;28;20132;-64
2022/12/07 03:01:49;;;;;;;0.25;0.25;;;5.50;99.90;;;;;;5030044;28;20049;-63
2022/12/07 03:04:24;;;;;;;0.10;0.10;;;5.50;99.90;;;;;;5031733;28;20053;-64
2022/12/07 03:06:56;;;;;;;1.35;1.23;;;5.40;99.90;;;;;;5030286;28;20053;-63
2022/12/07 03:09:36;;;;;;;0.10;0.10;;;5.40;99.90;;;;;;5029449;28;20588;-64
2022/12/07 03:12:09;;;;;;;0.10;0.10;;;5.40;99.90;;;;;;5030820;28;20076;-64
2022/12/07 03:14:41;;;;;;;0.10;0.10;;;5.40;99.90;;;;;;5028709;28;20037;-64
2022/12/07 03:17:19;;;;;;;0.10;0.10;;;5.30;99.90;;;;;;5030981;28;20580;-64
2022/12/07 03:19:46;;;;;;;0.10;0.10;;;5.40;99.90;;;;;;5029503;28;20046;-64
2022/12/07 03:22:13;;;;;;;0.10;0.10;;;5.40;99.90;;;;;;5029761;28;20048;-64
2022/12/07 03:24:49;;;;;;;0.10;0.10;;;5.40;99.90;;;;;;5027841;28;20444;-63
2022/12/07 03:27:24;;;;;;;0.10;0.10;;;5.40;99.90;;;;;;5029839;28;20057;-64
2022/12/07 03:29:58;;;;;;;0.10;0.10;;;5.40;99.90;;;;;;5028471;28;20042;-64
2022/12/07 03:32:31;;;;;;;0.10;0.10;;;5.40;99.90;;;;;;5029432;28;20041;-64
2022/12/07 03:35:06;;;;;;;0.10;0.10;;;5.40;99.90;;;;;;5029501;28;20041;-63
2022/12/07 03:37:43;;;;;;;0.10;0.10;;;5.40;99.90;;;;;;5028646;28;20045;-63
2022/12/07 03:40:34;;;;;;;0.10;0.10;;;5.50;99.90;;;;;;5029253;28;20041;-64
2022/12/07 03:43:02;;;;;;;0.10;0.10;;;5.50;99.90;;;;;;5028566;28;20065;-64
2022/12/07 03:45:59;;;;;;;0.00;0.00;;;5.50;99.90;;;;;;5028327;28;20045;-64
2022/12/07 03:48:32;;;;;;;0.10;0.10;;;5.40;99.90;;;;;;5023334;28;20607;-63
2022/12/07 03:51:23;;;;;;;0.10;0.10;;;5.50;99.90;;;;;;5030259;28;20052;-64
2022/12/07 03:54:09;;;;;;;0.10;0.10;;;5.50;99.90;;;;;;5026623;28;20057;-64
2022/12/07 03:56:35;;;;;;;0.45;0.45;;;5.50;99.90;;;;;;5027763;28;20045;-64
2022/12/07 03:59:01;;;;;;;0.30;0.30;;;5.40;99.90;;;;;;5028494;28;20042;-63
2022/12/07 04:01:27;;;;;;;0.10;0.10;;;5.50;99.90;;;;;;5029385;28;20098;-64
2022/12/07 04:03:53;;;;;;;0.10;0.10;;;5.40;99.90;;;;;;5028558;28;20041;-64
2022/12/07 04:06:19;;;;;;;0.00;0.00;;;5.40;99.90;;;;;;5031255;28;20038;-63
2022/12/07 04:08:44;;;;;;;0.10;0.10;;;5.40;99.90;;;;;;5028230;28;20250;-64
2022/12/07 04:11:10;;;;;;;0.10;0.10;;;5.30;99.90;;;;;;5024502;28;20104;-64
2022/12/07 04:14:18;;;;;;;0.10;0.10;;;5.30;99.90;;;;;;5027283;28;20038;-64
2022/12/07 04:16:21;;;;;;;0.10;0.10;;;5.30;99.90;;;;;;5026929;28;20045;-64
2022/12/07 04:18:47;;;;;;;0.10;0.10;;;5.30;99.90;;;;;;5029422;28;20041;-64
2022/12/07 04:21:12;;;;;;;0.10;0.10;;;5.30;99.90;;;;;;5029341;28;20042;-64
2022/12/07 04:23:38;;;;;;;0.47;0.47;;;5.30;99.90;;;;;;5027079;28;20053;-64
2022/12/07 04:26:03;;;;;;;0.15;0.15;;;5.20;99.90;;;;;;5028685;28;20212;-63
2022/12/07 04:28:29;;;;;;;0.10;0.10;;;5.20;99.90;;;;;;5028631;28;20140;-64
2022/12/07 04:30:54;;;;;;;0.10;0.10;;;5.20;99.90;;;;;;5026939;28;20037;-63
2022/12/07 04:33:20;;;;;;;0.10;0.10;;;5.20;99.90;;;;;;5030141;28;20481;-63
2022/12/07 04:35:46;;;;;;;0.10;0.10;;;5.20;99.90;;;;;;5029368;28;20049;-63
2022/12/07 04:38:11;;;;;;;0.10;0.10;;;5.20;99.90;;;;;;5027691;28;20052;-63
2022/12/07 04:40:37;;;;;;;0.10;0.10;;;5.20;99.90;;;;;;5029757;28;20535;-63
2022/12/07 04:43:02;;;;;;;0.10;0.10;;;5.20;99.90;;;;;;5029387;28;20511;-63
2022/12/07 04:45:28;;;;;;;0.10;0.10;;;5.20;99.90;;;;;;5027667;28;20056;-64
2022/12/07 04:47:53;;;;;;;0.10;0.10;;;5.10;99.90;;;;;;5029487;28;20260;-63
2022/12/07 04:50:19;;;;;;;0.00;0.00;;;5.10;99.90;;;;;;5025113;28;20676;-63
2022/12/07 04:52:44;;;;;;;0.10;0.10;;;5.10;99.90;;;;;;5018576;28;20050;-63
2022/12/07 04:55:10;;;;;;;0.10;0.10;;;5.20;99.90;;;;;;5027711;28;20045;-63
2022/12/07 04:57:35;;;;;;;0.10;0.10;;;5.20;99.90;;;;;;5029291;28;20112;-63
2022/12/07 05:00:01;;;;;;;0.10;0.10;;;5.20;99.90;;;;;;5028671;28;20464;-63
2022/12/07 05:02:27;;;;;;;0.10;0.10;;;5.20;99.90;;;;;;5028243;28;20042;-63
2022/12/07 05:04:52;;;;;;;0.10;0.10;;;5.20;99.90;;;;;;5026035;28;20076;-64
2022/12/07 05:07:18;;;;;;;1.65;1.55;;;5.20;99.90;;;;;;5027392;28;20046;-64
2022/12/07 05:09:43;;;;;;;0.10;0.10;;;5.30;99.90;;;;;;5027496;28;20094;-63
2022/12/07 05:12:09;;;;;;;0.10;0.10;;;5.30;99.90;;;;;;5027359;28;20049;-63
2022/12/07 05:14:35;;;;;;;0.10;0.10;;;5.30;99.90;;;;;;5027250;28;20056;-63
2022/12/07 05:17:00;;;;;;;0.10;0.10;;;5.30;99.90;;;;;;5027718;28;20124;-64
2022/12/07 05:19:26;;;;;;;0.10;0.10;;;5.40;99.90;;;;;;5028800;28;20042;-64
2022/12/07 05:21:51;;;;;;;0.10;0.10;;;5.30;99.90;;;;;;5041574;28;20069;-64
2022/12/07 05:24:17;;;;;;;0.10;0.10;;;5.40;99.90;;;;;;5028748;28;20524;-64
2022/12/07 05:26:44;;;;;;;0.10;0.10;;;5.30;99.90;;;;;;5026270;28;20045;-64
2022/12/07 05:29:14;;;;;;;0.10;0.10;;;5.30;99.90;;;;;;5026965;28;20107;-64
2022/12/07 05:31:40;;;;;;;0.10;0.10;;;5.20;99.90;;;;;;5024829;28;20542;-64
2022/12/07 05:34:06;;;;;;;0.10;0.10;;;5.20;99.90;;;;;;5026500;28;20033;-64
2022/12/07 05:36:31;;;;;;;0.10;0.10;;;5.20;99.90;;;;;;5026993;28;20084;-63
2022/12/07 05:38:57;;;;;;;0.10;0.10;;;5.20;99.90;;;;;;5026102;28;20496;-63
2022/12/07 05:44:08;;;;;;;0.10;0.10;;;5.20;99.90;;;;;;5028190;28;20107;-63
2022/12/07 05:46:34;;;;;;;0.00;0.00;;;5.20;99.90;;;;;;5026536;28;20045;-63
2022/12/07 05:49:00;;;;;;;0.10;0.10;;;5.10;99.90;;;;;;5027363;28;20060;-63
2022/12/07 05:51:25;;;;;;;0.10;0.10;;;5.10;99.90;;;;;;5027048;28;20604;-63
2022/12/07 05:53:51;;;;;;;0.10;0.10;;;5.10;99.90;;;;;;5028587;28;20045;-63
2022/12/07 05:56:16;;;;;;;0.10;0.10;;;5.10;99.90;;;;;;5026329;28;20405;-63
2022/12/07 06:01:26;;;;;;;0.10;0.10;;;5.10;99.90;;;;;;5027145;28;20053;-63
2022/12/07 06:03:52;;;;;;;0.10;0.10;;;5.10;99.90;;;;;;5026391;28;20045;-63
2022/12/07 06:06:17;;;;;;;0.10;0.10;;;5.10;99.90;;;;;;5026296;28;20525;-63
2022/12/07 06:08:43;;;;;;;0.10;0.10;;;5.00;99.90;;;;;;5028175;28;20053;-63
2022/12/07 06:13:52;;;;;;;0.32;0.32;;;4.90;99.90;;;;;;5027451;28;20053;-63
2022/12/07 06:16:18;;;;;;;0.10;0.10;;;4.80;99.90;;;;;;5044117;28;20037;-63
2022/12/07 06:18:43;;;;;;;0.85;0.57;;;4.70;99.90;;;;;;5028845;28;20054;-64
2022/12/07 06:21:09;;;;;;;0.10;0.10;;;4.70;99.90;;;;;;5022806;28;20084;-63
2022/12/07 06:23:34;;;;;;;0.55;0.55;;;4.60;99.90;;;;;;5011556;28;20142;-63
2022/12/07 06:26:00;;;;;;;0.10;0.10;;;4.70;99.90;;;;;;5025660;28;22236;-63
2022/12/07 06:28:26;;;;;;;0.10;0.10;;;4.60;99.90;;;;;;5030428;28;20041;-63
2022/12/07 06:30:59;;;;;;;0.10;0.10;;;4.50;99.90;;;;;;5031363;28;20077;-63
2022/12/07 06:33:25;;;;;;;15.23;1.20;;;4.50;99.90;;;;;;5029865;28;20048;-63
2022/12/07 06:35:51;;;;;;;0.10;0.10;;;4.50;99.90;;;;;;5030748;28;20053;-63
2022/12/07 06:38:16;;;;;;;0.10;0.10;;;4.40;99.90;;;;;;5031769;28;20052;-63
2022/12/07 06:40:42;;;;;;;0.10;0.10;;;4.50;99.90;;;;;;5031552;28;20038;-63
2022/12/07 06:43:08;;;;;;;0.10;0.10;;;4.50;99.90;;;;;;5028580;28;20049;-63
2022/12/07 06:45:33;;;;;;;0.10;0.10;;;4.60;99.90;;;;;;5029205;28;20136;-63
2022/12/07 06:47:59;;;;;;;0.10;0.10;;;4.70;99.90;;;;;;5031759;28;20053;-63
2022/12/07 06:50:24;;;;;;;0.20;0.20;;;4.70;99.90;;;;;;5030008;28;20148;-63
2022/12/07 06:52:51;;;;;;;0.10;0.10;;;4.80;99.90;;;;;;5026035;28;20041;-63
2022/12/07 06:55:17;;;;;;;0.10;0.10;;;4.90;99.90;;;;;;5029008;28;20072;-63
2022/12/07 06:57:42;;;;;;;0.10;0.10;;;4.90;99.90;;;;;;5030240;28;20081;-63
2022/12/07 07:00:09;;;;;;;0.10;0.10;;;4.90;99.90;;;;;;5030071;28;20152;-63
2022/12/07 07:02:34;;;;;;;0.03;0.03;;;4.90;99.90;;;;;;5030533;28;20057;-63
2022/12/07 07:05:00;;;;;;;0.10;0.10;;;4.90;99.90;;;;;;5028012;28;20045;-63
2022/12/07 07:07:25;;;;;;;0.10;0.10;;;5.00;99.90;;;;;;5030204;28;20044;-63
2022/12/07 07:09:51;;;;;;;0.10;0.10;;;5.00;99.90;;;;;;5030668;28;20045;-63
2022/12/07 07:12:16;;;;;;;0.10;0.10;;;4.90;99.90;;;;;;5026811;28;20052;-63
2022/12/07 07:14:43;;;;;;;0.10;0.10;;;5.00;99.90;;;;;;5031371;28;20071;-63
2022/12/07 07:17:09;;;;;;;0.10;0.10;;;5.00;99.90;;;;;;5030801;28;20049;-64
2022/12/07 07:19:34;;;;;;;0.10;0.10;;;5.10;99.90;;;;;;5029449;28;20400;-63
2022/12/07 07:22:00;;;;;;;0.10;0.10;;;5.20;99.90;;;;;;5029768;28;20045;-63
2022/12/07 07:24:26;;;;;;;0.10;0.10;;;5.10;99.90;;;;;;5027173;28;20382;-64
2022/12/07 07:26:51;;;;;;;0.10;0.10;;;5.20;99.90;;;;;;5028108;28;20033;-64
2022/12/07 07:29:17;;;;;;;0.10;0.10;;;5.20;99.90;;;;;;5029345;28;20556;-64
2022/12/07 07:31:42;;;;;;;0.10;0.10;;;5.20;99.90;;;;;;5029849;28;20052;-64
2022/12/07 07:34:08;;;;;;;0.10;0.10;;;5.20;99.90;;;;;;5029589;28;20060;-64
2022/12/07 07:36:33;;;;;;;0.10;0.10;;;5.20;99.90;;;;;;5026393;28;20770;-64
2022/12/07 07:38:59;;;;;;;0.10;0.10;;;5.20;99.90;;;;;;5030584;28;20037;-64
2022/12/07 07:41:25;;;;;;;0.10;0.10;;;5.30;99.90;;;;;;5029353;28;20485;-64
2022/12/07 07:43:50;;;;;;;0.10;0.10;;;5.20;99.90;;;;;;5026193;28;20445;-64
2022/12/07 07:46:16;;;;;;;0.10;0.10;;;5.30;99.90;;;;;;5030838;28;20139;-64
2022/12/07 07:48:41;;;;;;;2.08;0.95;;;5.30;99.90;;;;;;5028192;28;20051;-64
2022/12/07 07:51:08;;;;;;;0.10;0.10;;;5.30;99.90;;;;;;5025796;28;20108;-64
2022/12/07 07:53:33;;;;;;;0.10;0.10;;;5.30;99.90;;;;;;5020093;28;20034;-64
2022/12/07 07:55:59;;;;;;;0.10;0.10;;;5.30;99.90;;;;;;5027221;28;20100;-64
2022/12/07 07:58:25;;;;;;;0.15;0.15;;;5.20;99.90;;;;;;5029044;28;20080;-64
2022/12/07 08:00:50;;;;;;;0.10;0.10;;;5.20;99.90;;;;;;5029007;28;20049;-64
2022/12/07 08:03:16;;;;;;;1.25;1.23;;;5.20;99.90;;;;;;5029998;28;20504;-64
2022/12/07 08:05:42;;;;;;;0.10;0.10;;;5.10;99.90;;;;;;5028511;28;20048;-64
2022/12/07 08:08:07;;;;;;;0.10;0.10;;;5.20;99.90;;;;;;5015094;28;20050;-64
2022/12/07 08:10:35;;;;;;;0.10;0.10;;;5.20;99.90;;;;;;5010045;28;20042;-64
2022/12/07 08:13:15;;;;;;;0.10;0.10;;;5.20;99.90;;;;;;5010622;28;20088;-64
2022/12/07 08:15:44;;;;;;;0.10;0.10;;;5.30;99.90;;;;;;5028438;28;20056;-64
2022/12/07 08:18:10;;;;;;;0.10;0.10;;;5.30;99.90;;;;;;5028252;28;20049;-64
2022/12/07 08:20:37;;;;;;;0.10;0.10;;;5.40;99.90;;;;;;5029633;28;20128;-64
2022/12/07 08:23:03;;;;;;;0.22;0.22;;;5.40;99.90;;;;;;5029037;28;20076;-64
2022/12/07 08:25:29;;;;;;;0.10;0.10;;;5.30;99.90;;;;;;5025445;28;20060;-64
2022/12/07 08:27:55;;;;;;;0.10;0.10;;;5.30;99.90;;;;;;5029777;28;20049;-64
2022/12/07 08:30:21;;;;;;;0.00;0.00;;;5.30;99.90;;;;;;5028703;28;20478;-64
2022/12/07 08:32:48;;;;;;;0.10;0.10;;;5.30;99.90;;;;;;5029673;28;20045;-64
2022/12/07 08:35:14;;;;;;;0.10;0.10;;;5.20;99.90;;;;;;5024551;28;20038;-64
2022/12/07 08:37:40;;;;;;;0.10;0.10;;;5.20;99.90;;;;;;5027189;28;20053;-64
2022/12/07 08:40:07;;;;;;;0.10;0.10;;;5.20;99.90;;;;;;5027374;28;20117;-64
2022/12/07 08:42:39;;;;;;;0.10;0.10;;;5.20;99.90;;;;;;5020927;28;20735;-64
2022/12/07 08:45:17;;;;;;;0.10;0.10;;;5.10;99.90;;;;;;5007333;28;20100;-64
2022/12/07 08:48:06;;;;;;;0.10;0.10;;;5.20;99.90;;;;;;5009677;28;20152;-64
2022/12/07 08:50:32;;;;;;;0.20;0.20;;;5.10;99.90;;;;;;5008659;28;20084;-64
2022/12/07 08:53:00;;;;;;;3.53;1.10;;;5.10;99.90;;;;;;4990346;28;20046;-64
2022/12/07 08:55:28;;;;;;;0.98;0.85;;;5.10;99.90;;;;;;5008753;28;20088;-64
2022/12/07 08:57:54;;;;;;;0.10;0.10;;;5.10;99.90;;;;;;5007324;28;20041;-64
2022/12/07 09:00:19;;;;;;;0.22;0.22;;;5.10;99.90;;;;;;5009669;28;20050;-64
2022/12/07 09:02:46;;;;;;;0.10;0.10;;;5.10;99.90;;;;;;5009386;28;20129;-64
2022/12/07 09:05:14;;;;;;;1.65;1.05;;;5.10;99.90;;;;;;5008520;28;20050;-64
2022/12/07 09:07:41;;;;;;;0.10;0.10;;;5.10;99.90;;;;;;5009466;28;20072;-65
2022/12/07 09:10:07;;;;;;;0.10;0.10;;;5.00;99.90;;;;;;5009050;28;20041;-64
2022/12/07 09:12:33;;;;;;;1.00;0.98;;;5.00;99.90;;;;;;5008664;28;20045;-64
2022/12/07 09:15:00;;;;;;;0.10;0.10;;;5.00;99.90;;;;;;4991271;28;20046;-64
2022/12/07 09:17:26;;;;;;;0.10;0.10;;;5.10;99.90;;;;;;5008724;28;20042;-64
2022/12/07 09:19:52;;;;;;;0.10;0.10;;;5.10;99.90;;;;;;4998439;28;20038;-64
2022/12/07 09:22:17;;;;;;;0.10;0.10;;;5.20;99.90;;;;;;5005243;28;20885;-64
2022/12/07 09:24:45;;;;;;;0.10;0.10;;;5.30;99.90;;;;;;5004413;28;20050;-64
2022/12/07 09:27:11;;;;;;;0.10;0.10;;;5.40;99.90;;;;;;5006633;28;20049;-64
2022/12/07 09:29:37;;;;;;;0.10;0.10;;;5.50;99.90;;;;;;5008435;28;20046;-64
2022/12/07 09:32:02;;;;;;;1.15;0.98;;;5.60;99.90;;;;;;5008209;28;20048;-64
2022/12/07 09:34:31;;;;;;;0.10;0.10;;;5.60;99.90;;;;;;5004359;28;20080;-64
2022/12/07 09:36:57;;;;;;;0.22;0.22;;;5.70;99.90;;;;;;4998032;28;20073;-64
2022/12/07 09:39:23;;;;;;;0.10;0.10;;;5.60;99.90;;;;;;5007585;28;20050;-64
2022/12/07 09:41:49;;;;;;;0.10;0.10;;;5.70;99.90;;;;;;5004605;28;20185;-64
2022/12/07 09:44:23;;;;;;;0.10;0.10;;;5.70;99.90;;;;;;5005320;28;20163;-64
2022/12/07 09:46:50;;;;;;;0.10;0.10;;;5.80;99.90;;;;;;5007374;28;20050;-64
2022/12/07 09:49:28;;;;;;;0.10;0.10;;;5.80;99.90;;;;;;5007630;28;20398;-64
2022/12/07 09:52:07;;;;;;;0.10;0.10;;;5.80;99.90;;;;;;5008297;28;20394;-64
2022/12/07 09:54:36;;;;;;;0.20;0.20;;;5.90;99.90;;;;;;5007409;28;20088;-64
2022/12/07 09:57:02;;;;;;;0.00;0.00;;;5.90;99.90;;;;;;5006981;28;20065;-64
2022/12/07 09:59:27;;;;;;;0.10;0.10;;;6.00;99.90;;;;;;5005325;28;20080;-64
2022/12/07 10:01:53;;;;;;;0.10;0.10;;;6.00;99.90;;;;;;5007343;28;20501;-64
2022/12/07 10:04:27;;;;;;;0.10;0.10;;;6.00;99.90;;;;;;5007812;28;20041;-64
2022/12/07 10:06:52;;;;;;;;;;;6.10;99.90;;;;;;5008473;28;20069;-64
2022/12/07 10:09:22;;;;;;;0.10;0.10;;;6.10;99.90;;;;;;5005737;28;20436;-64
2022/12/07 10:12:11;;;;;;;0.95;0.95;;;6.20;99.90;;;;;;5004790;28;20042;-64
2022/12/07 10:14:40;;;;;;;0.10;0.10;;;6.30;99.90;;;;;;5008041;28;20042;-64
2022/12/07 10:17:30;;;;;;;0.00;0.00;;;6.40;99.90;;;;;;4976267;28;20506;-65
2022/12/07 10:20:28;;;;;;;0.10;0.10;;;6.50;99.90;;;;;;5004889;28;20045;-64
2022/12/07 10:22:55;;;;;;;0.10;0.10;;;6.60;99.90;;;;;;4962466;28;20310;-64
2022/12/07 10:25:22;;;;;;;0.10;0.10;;;6.60;99.90;;;;;;5007403;28;20050;-64
2022/12/07 10:28:06;;;;;;;0.10;0.10;;;6.60;99.90;;;;;;5003783;28;20045;-64
2022/12/07 10:30:33;;;;;;;0.10;0.10;;;6.60;99.90;;;;;;5006380;28;20045;-64
2022/12/07 10:32:59;;;;;;;0.10;0.10;;;6.50;99.90;;;;;;5008212;28;20072;-64
2022/12/07 10:35:31;;;;;;;0.10;0.10;;;6.40;99.90;;;;;;4989768;28;20494;-64
2022/12/07 10:37:59;;;;;;;0.10;0.10;;;6.40;99.90;;;;;;5005712;28;20108;-64
2022/12/07 10:40:34;;;;;;;0.10;0.10;;;6.40;99.90;;;;;;5003744;28;20062;-64
2022/12/07 10:43:02;;;;;;;0.10;0.10;;;6.40;99.90;;;;;;5017635;28;20054;-64
2022/12/07 10:45:28;;;;;;;0.10;0.10;;;6.30;99.90;;;;;;5026092;28;20072;-64
2022/12/07 10:48:12;;;;;;;0.10;0.10;;;6.30;99.90;;;;;;5028015;28;20045;-64
2022/12/07 10:50:40;;;;;;;0.10;0.10;;;6.30;99.90;;;;;;5026439;28;20045;-64
2022/12/07 10:53:27;;;;;;;0.10;0.10;;;6.40;99.90;;;;;;5025461;28;20140;-64
2022/12/07 10:56:16;;;;;;;0.10;0.10;;;6.30;99.90;;;;;;5025163;28;20049;-64
2022/12/07 10:59:00;;;;;;;0.00;0.00;;;6.30;99.90;;;;;;5026338;28;20405;-64
2022/12/07 11:01:43;;;;;;;0.10;0.10;;;6.30;99.90;;;;;;5026678;28;20046;-64
2022/12/07 11:04:18;;;;;;;0.03;0.03;;;6.20;99.90;;;;;;5030227;28;20056;-64
2022/12/07 11:07:10;;;;;;;0.10;0.10;;;6.20;99.90;;;;;;5030101;28;20136;-64
2022/12/07 11:10:10;;;;;;;0.10;0.10;;;6.20;99.90;;;;;;5030459;28;20041;-64
2022/12/07 11:12:57;;;;;;;0.10;0.10;;;6.20;99.90;;;;;;5028531;28;20042;-64
2022/12/07 11:15:46;;;;;;;0.10;0.10;;;6.30;99.90;;;;;;5031417;28;20053;-64
2022/12/07 11:18:27;;;;;;;0.00;0.00;;;6.30;99.90;;;;;;5030666;28;20038;-64
2022/12/07 11:21:13;;;;;;;0.10;0.10;;;6.30;99.90;;;;;;5030575;28;20512;-64
2022/12/07 11:23:42;;;;;;;0.10;0.10;;;6.50;99.90;;;;;;5030889;28;20044;-64
2022/12/07 11:26:32;;;;;;;0.10;0.10;;;6.50;99.90;;;;;;5029310;28;20053;-64
2022/12/07 11:29:19;;;;;;;0.10;0.10;;;6.50;99.90;;;;;;5028208;28;20049;-64
2022/12/07 11:32:09;;;;;;;0.10;0.10;;;6.50;99.90;;;;;;5029709;28;20076;-64
2022/12/07 11:34:57;;;;;;;0.00;0.00;;;6.50;99.90;;;;;;5030223;28;20080;-64
2022/12/07 11:37:32;;;;;;;0.10;0.10;;;6.50;99.90;;;;;;5029853;28;20401;-64
2022/12/07 11:40:27;;;;;;;0.10;0.10;;;6.60;99.90;;;;;;5029017;28;20042;-64
2022/12/07 11:43:02;;;;;;;2.33;1.17;;;6.50;99.90;;;;;;5028109;28;20650;-64
2022/12/07 11:45:40;;;;;;;0.10;0.10;;;6.50;99.90;;;;;;5029997;28;20056;-64
2022/12/07 11:48:22;;;;;;;1.63;1.50;;;6.50;99.90;;;;;;5028507;28;20045;-64
2022/12/07 11:50:57;;;;;;;0.00;0.00;;;6.50;99.90;;;;;;5030826;28;20060;-64
2022/12/07 11:53:39;;;;;;;0.10;0.10;;;6.60;99.90;;;;;;5029394;28;20552;-64
2022/12/07 11:56:14;;;;;;;0.10;0.10;;;6.60;99.90;;;;;;5029788;28;20128;-64
2022/12/07 11:58:53;;;;;;;0.10;0.10;;;6.70;99.90;;;;;;5029784;28;20067;-64
2022/12/07 12:01:37;;;;;;;0.10;0.10;;;6.80;99.90;;;;;;5026757;28;20127;-64
2022/12/07 12:04:09;;;;;;;0.10;0.10;;;6.90;99.90;;;;;;5030005;28;20585;-64
2022/12/07 12:06:37;;;;;;;0.10;0.10;;;7.10;99.90;;;;;;5029308;28;20706;-64
2022/12/07 12:09:16;;;;;;;0.10;0.10;;;7.10;99.90;;;;;;5028622;28;20537;-64
2022/12/07 12:12:06;;;;;;;0.10;0.10;;;7.00;99.90;;;;;;5028692;28;20375;-64
2022/12/07 12:15:05;;;;;;;0.10;0.10;;;7.00;99.90;;;;;;5019428;28;20049;-64
2022/12/07 12:18:03;;;;;;;0.10;0.10;;;6.90;99.90;;;;;;5027984;28;20449;-64
2022/12/07 12:20:46;;;;;;;0.10;0.10;;;6.80;99.90;;;;;;5028928;28;20057;-64
2022/12/07 12:23:14;;;;;;;0.10;0.10;;;6.80;99.90;;;;;;5028457;28;20053;-64
2022/12/07 12:25:42;;;;;;;0.10;0.10;;;6.80;99.90;;;;;;5026831;28;20057;-63
2022/12/07 12:28:40;;;;;;;0.10;0.10;;;6.60;99.90;;;;;;5026761;28;20045;-64
2022/12/07 12:31:11;;;;;;;0.00;0.00;;;6.70;99.90;;;;;;5027705;28;20045;-63
2022/12/07 12:33:38;;;;;;;0.03;0.03;;;6.70;99.90;;;;;;5028636;28;20052;-63
2022/12/07 12:36:15;;;;;;;0.10;0.10;;;6.70;99.90;;;;;;5029181;28;20083;-63
2022/12/07 12:39:06;;;;;;;0.10;0.10;;;6.90;99.90;;;;;;5024466;28;20050;-63
2022/12/07 12:44:14;;;;;;;0.00;0.00;;;7.50;99.90;;;;;;5025890;28;20049;-64
2022/12/07 12:46:52;;;;;;;0.10;0.10;;;7.60;99.90;;;;;;5027762;28;20400;-64
2022/12/07 12:49:19;;;;;;;0.10;0.10;;;7.60;99.90;;;;;;5029632;28;20128;-64
2022/12/07 12:51:59;;;;;;;0.10;0.10;;;7.50;99.90;;;;;;5027691;28;20685;-63
2022/12/07 12:54:28;;;;;;;0.10;0.10;;;7.30;99.90;;;;;;5028039;28;20068;-63
2022/12/07 12:57:24;;;;;;;0.30;0.30;;;7.20;99.90;;;;;;5009012;28;20046;-63
2022/12/07 12:59:52;;;;;;;0.10;0.10;;;7.10;99.90;;;;;;5015095;28;20069;-63
2022/12/07 13:02:38;;;;;;;0.25;0.25;;;7.00;99.90;;;;;;5022454;28;20045;-63
2022/12/07 13:05:22;;;;;;;0.05;0.05;;;6.80;99.90;;;;;;5027723;28;20088;-63
2022/12/07 13:07:56;;;;;;;0.10;0.10;;;6.80;99.90;;;;;;5029184;28;20045;-64
2022/12/07 13:10:30;;;;;;;0.00;0.00;;;6.70;99.90;;;;;;5026862;28;20046;-63
2022/12/07 13:13:11;;;;;;;0.10;0.10;;;6.60;99.90;;;;;;5027596;28;20072;-64
2022/12/07 13:16:03;;;;;;;0.00;0.00;;;6.60;99.90;;;;;;5028064;28;20103;-64
2022/12/07 13:18:31;;;;;;;0.00;0.00;;;6.60;99.90;;;;;;5028110;28;20112;-64
2022/12/07 13:21:09;;;;;;;0.10;0.10;;;6.70;99.90;;;;;;5027900;28;20038;-64
2022/12/07 13:23:44;;;;;;;0.00;0.00;;;6.70;99.90;;;;;;5027380;28;20041;-63
2022/12/07 13:26:15;;;;;;;0.10;0.10;;;6.60;99.90;;;;;;5025076;28;20054;-63
2022/12/07 13:28:50;;;;;;;0.10;0.10;;;6.60;99.90;;;;;;5027668;28;20128;-64